sensor_id;sensor_type;location;lat;lon;timestamp;pressure;altitude;pressure_sealevel;temperature;humidity
16331;BME280;8275;48.206;16.340;2023-04-16T00:01:09;98936.53;;;12.01;53.56
16331;BME280;8275;48.206;16.340;2023-04-16T00:03:37;98943.13;;;12.05;53.65
16331;BME280;8275;48.206;16.340;2023-04-16T00:06:06;98938.47;;;12.11;53.70
16331;BME280;8275;48.206;16.340;2023-04-16T00:08:35;98940.66;;;12.14;53.98
16331;BME280;8275;48.206;16.340;2023-04-16T00:11:04;98937.09;;;12.18;53.88
16331;BME280;8275;48.206;16.340;2023-04-16T00:13:33;98940.94;;;12.22;53.78
16331;BME280;8275;48.206;16.340;2023-04-16T00:16:01;98942.03;;;12.26;53.79
16331;BME280;8275;48.206;16.340;2023-04-16T00:18:31;98934.34;;;12.28;53.82
16331;BME280;8275;48.206;16.340;2023-04-16T00:21:00;98932.97;;;12.31;53.85
16331;BME280;8275;48.206;16.340;2023-04-16T00:23:28;98928.84;;;12.33;53.84
16331;BME280;8275;48.206;16.340;2023-04-16T00:25:57;98926.66;;;12.35;53.83
16331;BME280;8275;48.206;16.340;2023-04-16T00:28:26;98935.72;;;12.36;53.77
16331;BME280;8275;48.206;16.340;2023-04-16T00:30:55;98931.31;;;12.35;53.40
16331;BME280;8275;48.206;16.340;2023-04-16T00:33:24;98937.94;;;12.34;53.58
16331;BME280;8275;48.206;16.340;2023-04-16T00:35:54;98936.81;;;12.35;53.74
16331;BME280;8275;48.206;16.340;2023-04-16T00:38:23;98939.84;;;12.33;53.33
16331;BME280;8275;48.206;16.340;2023-04-16T00:40:56;98940.09;;;12.32;53.59
16331;BME280;8275;48.206;16.340;2023-04-16T00:43:25;98941.50;;;12.29;53.31
16331;BME280;8275;48.206;16.340;2023-04-16T00:45:56;98935.44;;;12.27;53.44
16331;BME280;8275;48.206;16.340;2023-04-16T00:48:24;98939.59;;;12.25;53.65
16331;BME280;8275;48.206;16.340;2023-04-16T00:50:55;98937.09;;;12.18;53.34
16331;BME280;8275;48.206;16.340;2023-04-16T00:53:24;98937.13;;;12.13;53.56
16331;BME280;8275;48.206;16.340;2023-04-16T00:55:54;98936.56;;;12.06;53.37
16331;BME280;8275;48.206;16.340;2023-04-16T00:58:23;98939.00;;;11.97;53.66
16331;BME280;8275;48.206;16.340;2023-04-16T01:00:52;98943.38;;;11.88;53.51
16331;BME280;8275;48.206;16.340;2023-04-16T01:03:21;98948.84;;;11.83;53.51
16331;BME280;8275;48.206;16.340;2023-04-16T01:05:50;98953.00;;;11.76;53.33
16331;BME280;8275;48.206;16.340;2023-04-16T01:08:21;98945.03;;;11.69;53.33
16331;BME280;8275;48.206;16.340;2023-04-16T01:10:50;98951.53;;;11.63;53.81
16331;BME280;8275;48.206;16.340;2023-04-16T01:13:18;98954.56;;;11.57;53.53
16331;BME280;8275;48.206;16.340;2023-04-16T01:15:46;98959.19;;;11.51;53.65
16331;BME280;8275;48.206;16.340;2023-04-16T01:18:16;98952.03;;;11.45;53.78
16331;BME280;8275;48.206;16.340;2023-04-16T01:20:46;98952.84;;;11.41;53.63
16331;BME280;8275;48.206;16.340;2023-04-16T01:23:15;98957.22;;;11.37;53.88
16331;BME280;8275;48.206;16.340;2023-04-16T01:25:44;98958.88;;;11.33;53.96
16331;BME280;8275;48.206;16.340;2023-04-16T01:28:13;98963.50;;;11.27;54.22
16331;BME280;8275;48.206;16.340;2023-04-16T01:30:41;98972.53;;;11.22;53.88
16331;BME280;8275;48.206;16.340;2023-04-16T01:33:12;98973.06;;;11.19;54.48
16331;BME280;8275;48.206;16.340;2023-04-16T01:35:41;98976.34;;;11.16;54.28
16331;BME280;8275;48.206;16.340;2023-04-16T01:38:11;98976.31;;;11.11;54.40
16331;BME280;8275;48.206;16.340;2023-04-16T01:40:39;98977.69;;;11.09;54.45
16331;BME280;8275;48.206;16.340;2023-04-16T01:43:08;98984.78;;;11.05;54.29
16331;BME280;8275;48.206;16.340;2023-04-16T01:45:36;98988.66;;;11.09;54.69
16331;BME280;8275;48.206;16.340;2023-04-16T01:48:05;98988.13;;;11.12;55.09
16331;BME280;8275;48.206;16.340;2023-04-16T01:50:34;98989.47;;;11.14;54.64
16331;BME280;8275;48.206;16.340;2023-04-16T01:53:02;98990.63;;;11.18;55.10
16331;BME280;8275;48.206;16.340;2023-04-16T01:55:33;98989.81;;;11.23;54.84
16331;BME280;8275;48.206;16.340;2023-04-16T01:58:01;98996.69;;;11.30;55.15
16331;BME280;8275;48.206;16.340;2023-04-16T02:00:30;98981.63;;;11.33;55.00
16331;BME280;8275;48.206;16.340;2023-04-16T02:02:59;98989.31;;;11.36;54.97
16331;BME280;8275;48.206;16.340;2023-04-16T02:05:27;98987.41;;;11.37;54.52
16331;BME280;8275;48.206;16.340;2023-04-16T02:07:56;98992.34;;;11.35;54.48
16331;BME280;8275;48.206;16.340;2023-04-16T02:10:24;98990.13;;;11.32;54.79
16331;BME280;8275;48.206;16.340;2023-04-16T02:12:54;98998.31;;;11.26;54.32
16331;BME280;8275;48.206;16.340;2023-04-16T02:15:23;98991.72;;;11.22;54.77
16331;BME280;8275;48.206;16.340;2023-04-16T02:17:51;98992.53;;;11.18;54.51
16331;BME280;8275;48.206;16.340;2023-04-16T02:20:23;98990.59;;;11.13;54.80
16331;BME280;8275;48.206;16.340;2023-04-16T02:22:51;98999.34;;;11.10;54.67
16331;BME280;8275;48.206;16.340;2023-04-16T02:25:20;99000.97;;;11.06;54.71
16331;BME280;8275;48.206;16.340;2023-04-16T02:27:49;99002.59;;;11.02;55.08
16331;BME280;8275;48.206;16.340;2023-04-16T02:30:19;99003.13;;;10.99;54.87
16331;BME280;8275;48.206;16.340;2023-04-16T02:32:48;99004.47;;;10.97;55.04
16331;BME280;8275;48.206;16.340;2023-04-16T02:35:17;99010.22;;;10.95;55.10
16331;BME280;8275;48.206;16.340;2023-04-16T02:37:45;99002.84;;;10.96;55.13
16331;BME280;8275;48.206;16.340;2023-04-16T02:40:14;99004.19;;;10.98;55.57
16331;BME280;8275;48.206;16.340;2023-04-16T02:42:43;98997.13;;;11.02;55.35
16331;BME280;8275;48.206;16.340;2023-04-16T02:45:12;99002.34;;;11.09;55.87
16331;BME280;8275;48.206;16.340;2023-04-16T02:47:43;99000.44;;;11.14;55.83
16331;BME280;8275;48.206;16.340;2023-04-16T02:50:12;99000.22;;;11.21;55.65
16331;BME280;8275;48.206;16.340;2023-04-16T02:52:41;98987.34;;;11.26;55.46
16331;BME280;8275;48.206;16.340;2023-04-16T02:55:10;99000.56;;;11.35;55.41
16331;BME280;8275;48.206;16.340;2023-04-16T02:57:39;98998.66;;;11.40;55.81
16331;BME280;8275;48.206;16.340;2023-04-16T03:00:09;98998.66;;;11.45;55.74
16331;BME280;8275;48.206;16.340;2023-04-16T03:02:38;99005.25;;;11.49;55.79
16331;BME280;8275;48.206;16.340;2023-04-16T03:05:10;99002.00;;;11.52;55.56
16331;BME280;8275;48.206;16.340;2023-04-16T03:07:39;99015.44;;;11.54;55.15
16331;BME280;8275;48.206;16.340;2023-04-16T03:10:08;99012.44;;;11.55;55.26
16331;BME280;8275;48.206;16.340;2023-04-16T03:12:38;99019.84;;;11.55;55.13
16331;BME280;8275;48.206;16.340;2023-04-16T03:15:07;99020.66;;;11.55;55.36
16331;BME280;8275;48.206;16.340;2023-04-16T03:17:36;99023.13;;;11.57;55.53
16331;BME280;8275;48.206;16.340;2023-04-16T03:20:07;99019.00;;;11.54;55.36
16331;BME280;8275;48.206;16.340;2023-04-16T03:22:38;99025.03;;;11.56;55.24
16331;BME280;8275;48.206;16.340;2023-04-16T03:25:07;99017.94;;;11.55;55.18
16331;BME280;8275;48.206;16.340;2023-04-16T03:27:36;99025.88;;;11.57;55.40
16331;BME280;8275;48.206;16.340;2023-04-16T03:30:07;99032.75;;;11.59;55.20
16331;BME280;8275;48.206;16.340;2023-04-16T03:32:36;99034.13;;;11.62;55.56
16331;BME280;8275;48.206;16.340;2023-04-16T03:35:06;99037.16;;;11.65;55.70
16331;BME280;8275;48.206;16.340;2023-04-16T03:37:36;99036.38;;;11.70;55.92
16331;BME280;8275;48.206;16.340;2023-04-16T03:40:06;99041.06;;;11.74;55.40
16331;BME280;8275;48.206;16.340;2023-04-16T03:42:35;99036.41;;;11.80;55.64
16331;BME280;8275;48.206;16.340;2023-04-16T03:45:05;99033.41;;;11.86;55.42
16331;BME280;8275;48.206;16.340;2023-04-16T03:47:35;99035.91;;;11.93;55.83
16331;BME280;8275;48.206;16.340;2023-04-16T03:50:05;99036.75;;;11.98;55.50
16331;BME280;8275;48.206;16.340;2023-04-16T03:52:33;99037.31;;;12.06;55.43
16331;BME280;8275;48.206;16.340;2023-04-16T03:55:05;99047.47;;;12.10;55.33
16331;BME280;8275;48.206;16.340;2023-04-16T03:57:33;99045.84;;;12.14;55.47
16331;BME280;8275;48.206;16.340;2023-04-16T04:00:02;99049.69;;;12.18;55.18
16331;BME280;8275;48.206;16.340;2023-04-16T04:02:31;99055.47;;;12.22;55.08
16331;BME280;8275;48.206;16.340;2023-04-16T04:05:00;99058.47;;;12.25;55.06
16331;BME280;8275;48.206;16.340;2023-04-16T04:07:28;99065.91;;;12.30;55.20
16331;BME280;8275;48.206;16.340;2023-04-16T04:09:57;99079.66;;;12.35;55.34
16331;BME280;8275;48.206;16.340;2023-04-16T04:12:27;99074.44;;;12.38;55.32
16331;BME280;8275;48.206;16.340;2023-04-16T04:14:55;99078.28;;;12.42;55.19
16331;BME280;8275;48.206;16.340;2023-04-16T04:17:24;99073.91;;;12.46;55.08
16331;BME280;8275;48.206;16.340;2023-04-16T04:19:52;99081.31;;;12.51;55.31
16331;BME280;8275;48.206;16.340;2023-04-16T04:22:26;99089.84;;;12.54;55.29
16331;BME280;8275;48.206;16.340;2023-04-16T04:24:54;99087.91;;;12.60;54.94
16331;BME280;8275;48.206;16.340;2023-04-16T04:27:23;99083.78;;;12.62;54.93
16331;BME280;8275;48.206;16.340;2023-04-16T04:29:53;99089.59;;;12.66;54.79
16331;BME280;8275;48.206;16.340;2023-04-16T04:32:21;99090.94;;;12.68;55.14
16331;BME280;8275;48.206;16.340;2023-04-16T04:34:50;99092.06;;;12.73;54.89
16331;BME280;8275;48.206;16.340;2023-04-16T04:37:19;99095.91;;;12.77;54.91
16331;BME280;8275;48.206;16.340;2023-04-16T04:39:48;99106.06;;;12.81;54.81
16331;BME280;8275;48.206;16.340;2023-04-16T04:42:16;99100.84;;;12.85;54.83
16331;BME280;8275;48.206;16.340;2023-04-16T04:44:45;99102.22;;;12.87;54.70
16331;BME280;8275;48.206;16.340;2023-04-16T04:47:15;99107.72;;;12.92;54.91
16331;BME280;8275;48.206;16.340;2023-04-16T04:49:43;99111.84;;;12.95;54.81
16331;BME280;8275;48.206;16.340;2023-04-16T04:52:12;99116.81;;;12.98;54.73
16331;BME280;8275;48.206;16.340;2023-04-16T04:54:41;99116.22;;;13.01;54.52
16331;BME280;8275;48.206;16.340;2023-04-16T04:57:09;99123.09;;;13.03;54.42
16331;BME280;8275;48.206;16.340;2023-04-16T04:59:38;99130.00;;;13.06;54.41
16331;BME280;8275;48.206;16.340;2023-04-16T05:02:06;99131.13;;;13.10;54.59
16331;BME280;8275;48.206;16.340;2023-04-16T05:04:36;99119.56;;;13.13;54.58
16331;BME280;8275;48.206;16.340;2023-04-16T05:07:05;99136.06;;;13.18;54.62
16331;BME280;8275;48.206;16.340;2023-04-16T05:09:34;99141.03;;;13.21;54.52
16331;BME280;8275;48.206;16.340;2023-04-16T05:12:03;99136.31;;;13.26;54.41
16331;BME280;8275;48.206;16.340;2023-04-16T05:14:32;99148.16;;;13.32;54.32
16331;BME280;8275;48.206;16.340;2023-04-16T05:17:00;99150.06;;;13.36;54.60
16331;BME280;8275;48.206;16.340;2023-04-16T05:19:29;99146.78;;;13.40;54.11
16331;BME280;8275;48.206;16.340;2023-04-16T05:21:59;99154.44;;;13.43;54.21
16331;BME280;8275;48.206;16.340;2023-04-16T05:24:28;99152.00;;;13.46;54.06
16331;BME280;8275;48.206;16.340;2023-04-16T05:26:56;99157.50;;;13.51;54.08
16331;BME280;8275;48.206;16.340;2023-04-16T05:29:25;99156.91;;;13.54;54.01
16331;BME280;8275;48.206;16.340;2023-04-16T05:31:54;99150.88;;;13.57;54.04
16331;BME280;8275;48.206;16.340;2023-04-16T05:34:23;99159.38;;;13.61;53.88
16331;BME280;8275;48.206;16.340;2023-04-16T05:36:51;99155.25;;;13.63;53.81
16331;BME280;8275;48.206;16.340;2023-04-16T05:39:21;99158.53;;;13.65;53.73
16331;BME280;8275;48.206;16.340;2023-04-16T05:41:49;99156.06;;;13.69;53.77
16331;BME280;8275;48.206;16.340;2023-04-16T05:44:18;99162.94;;;13.71;53.57
16331;BME280;8275;48.206;16.340;2023-04-16T05:46:46;99161.28;;;13.75;53.56
16331;BME280;8275;48.206;16.340;2023-04-16T05:49:16;99160.44;;;13.80;53.51
16331;BME280;8275;48.206;16.340;2023-04-16T05:51:46;99161.25;;;13.85;53.41
16331;BME280;8275;48.206;16.340;2023-04-16T05:54:16;99162.34;;;13.89;53.44
16331;BME280;8275;48.206;16.340;2023-04-16T05:56:46;99163.16;;;13.95;53.38
16331;BME280;8275;48.206;16.340;2023-04-16T05:59:15;99161.47;;;13.99;53.21
16331;BME280;8275;48.206;16.340;2023-04-16T06:01:43;99158.41;;;14.05;53.16
16331;BME280;8275;48.206;16.340;2023-04-16T06:04:12;99157.56;;;14.10;53.06
16331;BME280;8275;48.206;16.340;2023-04-16T06:06:41;99164.44;;;14.18;53.02
16331;BME280;8275;48.206;16.340;2023-04-16T06:09:09;99158.09;;;14.22;52.89
16331;BME280;8275;48.206;16.340;2023-04-16T06:11:38;99163.56;;;14.27;52.74
16331;BME280;8275;48.206;16.340;2023-04-16T06:14:08;99167.44;;;14.31;52.80
16331;BME280;8275;48.206;16.340;2023-04-16T06:16:36;99171.81;;;14.37;52.63
16331;BME280;8275;48.206;16.340;2023-04-16T06:19:05;99167.63;;;14.45;52.82
16331;BME280;8275;48.206;16.340;2023-04-16T06:21:34;99169.78;;;14.53;52.58
16331;BME280;8275;48.206;16.340;2023-04-16T06:24:04;99180.75;;;14.63;52.40
16331;BME280;8275;48.206;16.340;2023-04-16T06:26:33;99175.47;;;14.71;52.36
16331;BME280;8275;48.206;16.340;2023-04-16T06:29:01;99174.31;;;14.83;52.28
16331;BME280;8275;48.206;16.340;2023-04-16T06:31:31;99176.41;;;14.96;52.22
16331;BME280;8275;48.206;16.340;2023-04-16T06:34:00;99177.16;;;15.06;52.21
16331;BME280;8275;48.206;16.340;2023-04-16T06:36:29;99171.25;;;15.18;51.84
16331;BME280;8275;48.206;16.340;2023-04-16T06:38:57;99172.81;;;15.29;51.87
16331;BME280;8275;48.206;16.340;2023-04-16T06:41:26;99169.69;;;15.40;51.39
16331;BME280;8275;48.206;16.340;2023-04-16T06:43:55;99180.97;;;15.49;51.38
16331;BME280;8275;48.206;16.340;2023-04-16T06:46:23;99183.63;;;15.59;51.38
16331;BME280;8275;48.206;16.340;2023-04-16T06:48:53;99163.63;;;15.72;51.29
16331;BME280;8275;48.206;16.340;2023-04-16T06:51:22;99180.06;;;15.82;51.07
16331;BME280;8275;48.206;16.340;2023-04-16T06:53:52;99179.13;;;15.92;51.01
16331;BME280;8275;48.206;16.340;2023-04-16T06:56:20;99183.25;;;15.94;50.02
16331;BME280;8275;48.206;16.340;2023-04-16T06:58:49;99179.09;;;15.97;50.26
16331;BME280;8275;48.206;16.340;2023-04-16T07:01:18;99179.03;;;16.02;50.02
16331;BME280;8275;48.206;16.340;2023-04-16T07:03:47;99181.50;;;16.03;49.37
16331;BME280;8275;48.206;16.340;2023-04-16T07:06:17;99187.84;;;16.04;49.33
16331;BME280;8275;48.206;16.340;2023-04-16T07:08:45;99193.03;;;16.10;49.50
16331;BME280;8275;48.206;16.340;2023-04-16T07:11:14;99199.53;;;16.20;49.78
16331;BME280;8275;48.206;16.340;2023-04-16T07:13:43;99196.38;;;16.31;49.63
16331;BME280;8275;48.206;16.340;2023-04-16T07:16:11;99203.41;;;16.42;48.95
16331;BME280;8275;48.206;16.340;2023-04-16T07:18:40;99198.88;;;16.51;48.67
16331;BME280;8275;48.206;16.340;2023-04-16T07:21:08;99208.69;;;16.62;48.65
16331;BME280;8275;48.206;16.340;2023-04-16T07:23:38;99207.75;;;16.72;48.23
16331;BME280;8275;48.206;16.340;2023-04-16T07:26:07;99208.66;;;16.86;48.28
16331;BME280;8275;48.206;16.340;2023-04-16T07:28:35;99214.56;;;16.98;48.00
16331;BME280;8275;48.206;16.340;2023-04-16T07:31:04;99222.72;;;17.08;46.80
16331;BME280;8275;48.206;16.340;2023-04-16T07:33:32;99214.19;;;17.05;46.45
16331;BME280;8275;48.206;16.340;2023-04-16T07:36:01;99224.34;;;17.09;46.68
16331;BME280;8275;48.206;16.340;2023-04-16T07:38:29;99224.28;;;17.14;46.60
16331;BME280;8275;48.206;16.340;2023-04-16T07:40:59;99226.06;;;17.24;46.65
16331;BME280;8275;48.206;16.340;2023-04-16T07:43:28;99222.00;;;17.35;46.90
16331;BME280;8275;48.206;16.340;2023-04-16T07:45:56;99222.66;;;17.45;46.83
16331;BME280;8275;48.206;16.340;2023-04-16T07:48:25;99218.34;;;17.58;46.67
16331;BME280;8275;48.206;16.340;2023-04-16T07:50:53;99219.78;;;17.69;46.79
16331;BME280;8275;48.206;16.340;2023-04-16T07:53:22;99227.13;;;17.79;46.22
16331;BME280;8275;48.206;16.340;2023-04-16T07:55:51;99224.03;;;17.80;45.44
16331;BME280;8275;48.206;16.340;2023-04-16T07:58:21;99228.75;;;17.80;45.40
16331;BME280;8275;48.206;16.340;2023-04-16T08:00:49;99221.25;;;17.80;45.48
16331;BME280;8275;48.206;16.340;2023-04-16T08:03:18;99219.81;;;17.83;45.38
16331;BME280;8275;48.206;16.340;2023-04-16T08:05:47;99225.97;;;17.80;44.89
16331;BME280;8275;48.206;16.340;2023-04-16T08:08:16;99231.00;;;17.78;44.54
16331;BME280;8275;48.206;16.340;2023-04-16T08:10:44;99226.09;;;17.75;44.20
16331;BME280;8275;48.206;16.340;2023-04-16T08:13:13;99229.97;;;17.74;43.97
16331;BME280;8275;48.206;16.340;2023-04-16T08:15:43;99228.53;;;17.76;44.44
16331;BME280;8275;48.206;16.340;2023-04-16T08:18:12;99226.19;;;17.83;44.54
16331;BME280;8275;48.206;16.340;2023-04-16T08:20:41;99235.13;;;17.94;44.55
16331;BME280;8275;48.206;16.340;2023-04-16T08:23:10;99232.69;;;18.06;44.53
16331;BME280;8275;48.206;16.340;2023-04-16T08:25:38;99230.53;;;18.16;44.10
16331;BME280;8275;48.206;16.340;2023-04-16T08:28:07;99232.09;;;18.22;43.88
16331;BME280;8275;48.206;16.340;2023-04-16T08:30:36;99234.56;;;18.24;43.10
16331;BME280;8275;48.206;16.340;2023-04-16T08:33:06;99243.50;;;18.21;42.90
16331;BME280;8275;48.206;16.340;2023-04-16T08:35:34;99248.31;;;18.15;43.09
16331;BME280;8275;48.206;16.340;2023-04-16T08:38:03;99239.78;;;18.12;43.53
16331;BME280;8275;48.206;16.340;2023-04-16T08:40:36;99251.50;;;18.09;43.59
16331;BME280;8275;48.206;16.340;2023-04-16T08:43:09;99246.25;;;18.07;43.49
16331;BME280;8275;48.206;16.340;2023-04-16T08:45:40;99255.72;;;18.06;43.42
16331;BME280;8275;48.206;16.340;2023-04-16T08:48:11;99240.50;;;18.04;42.99
16331;BME280;8275;48.206;16.340;2023-04-16T08:50:40;99245.03;;;18.00;42.91
16331;BME280;8275;48.206;16.340;2023-04-16T08:53:14;99252.59;;;17.94;42.49
16331;BME280;8275;48.206;16.340;2023-04-16T08:55:47;99247.38;;;17.93;42.81
16331;BME280;8275;48.206;16.340;2023-04-16T08:58:19;99251.47;;;17.95;42.51
16331;BME280;8275;48.206;16.340;2023-04-16T09:00:48;99252.50;;;17.99;42.44
16331;BME280;8275;48.206;16.340;2023-04-16T09:03:19;99259.59;;;18.05;42.26
16331;BME280;8275;48.206;16.340;2023-04-16T09:05:48;99261.34;;;18.15;41.63
16331;BME280;8275;48.206;16.340;2023-04-16T09:08:17;99258.69;;;18.23;40.77
16331;BME280;8275;48.206;16.340;2023-04-16T09:10:48;99255.00;;;18.28;40.36
16331;BME280;8275;48.206;16.340;2023-04-16T09:13:16;99251.84;;;18.35;40.63
16331;BME280;8275;48.206;16.340;2023-04-16T09:15:46;99258.03;;;18.45;41.01
16331;BME280;8275;48.206;16.340;2023-04-16T09:18:19;99259.47;;;18.56;40.35
16331;BME280;8275;48.206;16.340;2023-04-16T09:20:48;99261.31;;;18.61;39.90
16331;BME280;8275;48.206;16.340;2023-04-16T09:23:18;99261.03;;;18.62;40.01
16331;BME280;8275;48.206;16.340;2023-04-16T09:25:46;99260.59;;;18.69;40.54
16331;BME280;8275;48.206;16.340;2023-04-16T09:28:40;99274.38;;;18.74;40.84
16331;BME280;8275;48.206;16.340;2023-04-16T09:31:10;99271.38;;;18.84;41.06
16331;BME280;8275;48.206;16.340;2023-04-16T09:33:42;99273.44;;;18.92;41.02
16331;BME280;8275;48.206;16.340;2023-04-16T09:36:12;99271.66;;;18.96;40.90
16331;BME280;8275;48.206;16.340;2023-04-16T09:38:48;99271.34;;;18.98;40.64
16331;BME280;8275;48.206;16.340;2023-04-16T09:41:18;99279.88;;;19.01;40.69
16331;BME280;8275;48.206;16.340;2023-04-16T09:43:54;99273.81;;;18.99;40.69
16331;BME280;8275;48.206;16.340;2023-04-16T09:46:28;99284.09;;;18.99;40.20
16331;BME280;8275;48.206;16.340;2023-04-16T09:49:04;99285.66;;;18.91;39.71
16331;BME280;8275;48.206;16.340;2023-04-16T09:51:36;99280.41;;;18.89;39.93
16331;BME280;8275;48.206;16.340;2023-04-16T09:54:05;99278.47;;;18.90;40.11
16331;BME280;8275;48.206;16.340;2023-04-16T09:56:39;99286.56;;;18.86;39.41
16331;BME280;8275;48.206;16.340;2023-04-16T09:59:15;99285.13;;;18.89;40.03
16331;BME280;8275;48.206;16.340;2023-04-16T10:01:44;99286.66;;;18.95;39.17
16331;BME280;8275;48.206;16.340;2023-04-16T10:04:17;99282.78;;;18.96;39.69
16331;BME280;8275;48.206;16.340;2023-04-16T10:07:02;99290.56;;;19.08;40.08
16331;BME280;8275;48.206;16.340;2023-04-16T10:09:31;99294.84;;;19.14;40.27
16331;BME280;8275;48.206;16.340;2023-04-16T10:12:00;99286.94;;;19.21;39.54
16331;BME280;8275;48.206;16.340;2023-04-16T10:14:28;99280.00;;;19.32;38.66
16331;BME280;8275;48.206;16.340;2023-04-16T10:16:57;99280.63;;;19.42;39.02
16331;BME280;8275;48.206;16.340;2023-04-16T10:19:28;99280.06;;;19.54;38.69
16331;BME280;8275;48.206;16.340;2023-04-16T10:21:57;99278.25;;;19.72;38.88
16331;BME280;8275;48.206;16.340;2023-04-16T10:24:27;99281.66;;;19.91;38.21
16331;BME280;8275;48.206;16.340;2023-04-16T10:26:58;99281.91;;;20.03;37.26
16331;BME280;8275;48.206;16.340;2023-04-16T10:29:28;99280.25;;;20.02;36.74
16331;BME280;8275;48.206;16.340;2023-04-16T10:31:57;99276.69;;;20.10;37.51
16331;BME280;8275;48.206;16.340;2023-04-16T10:34:29;99280.94;;;20.29;37.64
16331;BME280;8275;48.206;16.340;2023-04-16T10:36:58;99278.91;;;20.52;36.81
16331;BME280;8275;48.206;16.340;2023-04-16T10:39:27;99276.19;;;20.69;36.16
16331;BME280;8275;48.206;16.340;2023-04-16T10:42:07;99282.13;;;20.85;35.79
16331;BME280;8275;48.206;16.340;2023-04-16T10:44:36;99284.63;;;21.04;35.82
16331;BME280;8275;48.206;16.340;2023-04-16T10:47:09;99277.16;;;21.13;34.75
16331;BME280;8275;48.206;16.340;2023-04-16T10:49:41;99272.75;;;21.20;34.45
16331;BME280;8275;48.206;16.340;2023-04-16T10:52:11;99268.63;;;21.18;33.43
16331;BME280;8275;48.206;16.340;2023-04-16T10:54:41;99270.06;;;21.07;33.84
16331;BME280;8275;48.206;16.340;2023-04-16T10:57:15;99274.47;;;20.99;34.01
16331;BME280;8275;48.206;16.340;2023-04-16T10:59:45;99271.84;;;20.94;33.27
16331;BME280;8275;48.206;16.340;2023-04-16T11:02:14;99275.25;;;20.91;33.06
16331;BME280;8275;48.206;16.340;2023-04-16T11:04:46;99274.75;;;20.89;34.22
16331;BME280;8275;48.206;16.340;2023-04-16T11:07:19;99275.09;;;20.87;33.59
16331;BME280;8275;48.206;16.340;2023-04-16T11:09:53;99284.22;;;20.79;33.14
16331;BME280;8275;48.206;16.340;2023-04-16T11:12:24;99280.59;;;20.70;32.62
16331;BME280;8275;48.206;16.340;2023-04-16T11:14:57;99279.59;;;20.66;32.88
16331;BME280;8275;48.206;16.340;2023-04-16T11:17:31;99280.13;;;20.77;34.16
16331;BME280;8275;48.206;16.340;2023-04-16T11:20:01;99275.78;;;21.02;34.31
16331;BME280;8275;48.206;16.340;2023-04-16T11:22:46;99273.56;;;21.29;33.45
16331;BME280;8275;48.206;16.340;2023-04-16T11:25:19;99272.72;;;21.46;32.66
16331;BME280;8275;48.206;16.340;2023-04-16T11:27:48;99269.78;;;21.77;32.69
16331;BME280;8275;48.206;16.340;2023-04-16T11:30:18;99258.84;;;22.26;32.42
16331;BME280;8275;48.206;16.340;2023-04-16T11:32:55;99252.78;;;23.00;32.71
16331;BME280;8275;48.206;16.340;2023-04-16T11:35:25;99257.94;;;23.81;32.68
16331;BME280;8275;48.206;16.340;2023-04-16T11:37:55;99257.81;;;24.67;31.85
16331;BME280;8275;48.206;16.340;2023-04-16T11:40:27;99265.25;;;25.35;31.32
16331;BME280;8275;48.206;16.340;2023-04-16T11:43:01;99260.75;;;25.70;30.55
16331;BME280;8275;48.206;16.340;2023-04-16T11:45:30;99259.00;;;25.66;29.78
16331;BME280;8275;48.206;16.340;2023-04-16T11:47:59;99265.84;;;25.41;29.57
16331;BME280;8275;48.206;16.340;2023-04-16T11:50:29;99264.16;;;25.00;29.13
16331;BME280;8275;48.206;16.340;2023-04-16T11:53:04;99267.25;;;24.50;29.24
16331;BME280;8275;48.206;16.340;2023-04-16T11:55:42;99274.34;;;24.03;30.02
16331;BME280;8275;48.206;16.340;2023-04-16T11:58:11;99272.00;;;23.72;30.22
16331;BME280;8275;48.206;16.340;2023-04-16T12:00:42;99270.16;;;23.35;28.81
16331;BME280;8275;48.206;16.340;2023-04-16T12:03:11;99278.38;;;23.11;29.78
16331;BME280;8275;48.206;16.340;2023-04-16T12:05:41;99274.34;;;22.99;29.35
16331;BME280;8275;48.206;16.340;2023-04-16T12:08:11;99279.63;;;22.92;29.47
16331;BME280;8275;48.206;16.340;2023-04-16T12:10:53;99278.47;;;22.93;30.58
16331;BME280;8275;48.206;16.340;2023-04-16T12:13:22;99278.63;;;22.97;30.18
16331;BME280;8275;48.206;16.340;2023-04-16T12:15:52;99274.53;;;22.94;29.79
16331;BME280;8275;48.206;16.340;2023-04-16T12:18:23;99276.38;;;22.90;30.03
16331;BME280;8275;48.206;16.340;2023-04-16T12:20:54;99277.84;;;22.88;30.42
16331;BME280;8275;48.206;16.340;2023-04-16T12:23:24;99268.66;;;22.87;30.08
16331;BME280;8275;48.206;16.340;2023-04-16T12:25:54;99274.44;;;22.82;30.30
16331;BME280;8275;48.206;16.340;2023-04-16T12:28:28;99277.63;;;22.72;30.41
16331;BME280;8275;48.206;16.340;2023-04-16T12:30:57;99270.09;;;22.64;30.01
16331;BME280;8275;48.206;16.340;2023-04-16T12:33:26;99269.59;;;22.62;30.36
16331;BME280;8275;48.206;16.340;2023-04-16T12:35:56;99273.03;;;22.59;30.02
16331;BME280;8275;48.206;16.340;2023-04-16T12:38:26;99274.38;;;22.62;29.96
16331;BME280;8275;48.206;16.340;2023-04-16T12:40:55;99268.44;;;22.63;29.72
16331;BME280;8275;48.206;16.340;2023-04-16T12:43:24;99263.31;;;22.74;30.23
16331;BME280;8275;48.206;16.340;2023-04-16T12:45:53;99271.06;;;22.97;30.31
16331;BME280;8275;48.206;16.340;2023-04-16T12:48:22;99262.38;;;23.20;29.99
16331;BME280;8275;48.206;16.340;2023-04-16T12:50:53;99262.78;;;23.30;29.76
16331;BME280;8275;48.206;16.340;2023-04-16T12:53:23;99259.84;;;23.27;29.46
16331;BME280;8275;48.206;16.340;2023-04-16T12:55:52;99247.63;;;23.11;29.31
16331;BME280;8275;48.206;16.340;2023-04-16T12:58:20;99253.81;;;22.95;29.49
16331;BME280;8275;48.206;16.340;2023-04-16T13:00:49;99250.28;;;22.78;29.74
16331;BME280;8275;48.206;16.340;2023-04-16T13:03:17;99256.28;;;22.59;29.56
16331;BME280;8275;48.206;16.340;2023-04-16T13:05:47;99254.88;;;22.36;29.68
16331;BME280;8275;48.206;16.340;2023-04-16T13:08:15;99254.78;;;22.15;30.07
16331;BME280;8275;48.206;16.340;2023-04-16T13:10:45;99263.22;;;21.98;29.61
16331;BME280;8275;48.206;16.340;2023-04-16T13:13:14;99256.50;;;21.82;30.23